sensor_id;sensor_type;location;lat;lon;timestamp;pressure;altitude;pressure_sealevel;temperature;humidity
7052;BME280;3567;52.444;13.556;2023-02-15T00:00:13;102835.13;;;2.32;100.00
7052;BME280;3567;52.444;13.556;2023-02-15T00:02:38;102831.06;;;2.17;100.00
7052;BME280;3567;52.444;13.556;2023-02-15T00:05:04;102833.09;;;2.02;100.00
7052;BME280;3567;52.444;13.556;2023-02-15T00:07:30;102836.84;;;1.88;100.00
7052;BME280;3567;52.444;13.556;2023-02-15T00:09:55;102832.53;;;1.76;100.00
7052;BME280;3567;52.444;13.556;2023-02-15T00:12:20;102829.63;;;1.68;100.00
7052;BME280;3567;52.444;13.556;2023-02-15T00:14:47;102835.63;;;1.58;100.00
7052;BME280;3567;52.444;13.556;2023-02-15T00:17:12;102828.41;;;1.49;100.00
7052;BME280;3567;52.444;13.556;2023-02-15T00:19:38;102828.38;;;1.38;100.00
7052;BME280;3567;52.444;13.556;2023-02-15T00:22:05;102833.28;;;1.31;100.00
7052;BME280;3567;52.444;13.556;2023-02-15T00:24:30;102825.97;;;1.24;100.00
7052;BME280;3567;52.444;13.556;2023-02-15T00:26:56;102823.03;;;1.16;100.00
7052;BME280;3567;52.444;13.556;2023-02-15T00:29:21;102823.50;;;1.10;100.00
7052;BME280;3567;52.444;13.556;2023-02-15T00:31:46;102812.59;;;1.03;100.00
7052;BME280;3567;52.444;13.556;2023-02-15T00:34:14;102806.06;;;0.96;100.00
7052;BME280;3567;52.444;13.556;2023-02-15T00:36:41;102810.00;;;0.90;100.00
7052;BME280;3567;52.444;13.556;2023-02-15T00:39:07;102809.63;;;0.84;100.00
7052;BME280;3567;52.444;13.556;2023-02-15T00:41:32;102803.84;;;0.78;100.00
7052;BME280;3567;52.444;13.556;2023-02-15T00:43:58;102800.81;;;0.72;100.00
7052;BME280;3567;52.444;13.556;2023-02-15T00:46:23;102797.69;;;0.67;100.00
7052;BME280;3567;52.444;13.556;2023-02-15T00:48:49;102801.63;;;0.61;100.00
7052;BME280;3567;52.444;13.556;2023-02-15T00:51:14;102791.63;;;0.54;100.00
7052;BME280;3567;52.444;13.556;2023-02-15T00:53:40;102793.25;;;0.43;100.00
7052;BME280;3567;52.444;13.556;2023-02-15T00:56:05;102794.88;;;0.33;100.00
7052;BME280;3567;52.444;13.556;2023-02-15T00:58:31;102794.59;;;0.25;100.00
7052;BME280;3567;52.444;13.556;2023-02-15T01:01:03;102792.38;;;0.19;100.00
7052;BME280;3567;52.444;13.556;2023-02-15T01:03:29;102807.69;;;0.14;100.00
7052;BME280;3567;52.444;13.556;2023-02-15T01:05:54;102804.53;;;0.09;100.00
7052;BME280;3567;52.444;13.556;2023-02-15T01:08:20;102803.81;;;0.07;100.00
7052;BME280;3567;52.444;13.556;2023-02-15T01:10:45;102802.34;;;0.03;100.00
7052;BME280;3567;52.444;13.556;2023-02-15T01:13:13;102804.56;;;-0.04;100.00
7052;BME280;3567;52.444;13.556;2023-02-15T01:15:38;102798.88;;;-0.11;100.00
7052;BME280;3567;52.444;13.556;2023-02-15T01:18:03;102803.53;;;-0.14;100.00
7052;BME280;3567;52.444;13.556;2023-02-15T01:20:29;102795.13;;;-0.19;100.00
7052;BME280;3567;52.444;13.556;2023-02-15T01:22:56;102790.06;;;-0.22;100.00
7052;BME280;3567;52.444;13.556;2023-02-15T01:25:23;102784.19;;;-0.26;100.00
7052;BME280;3567;52.444;13.556;2023-02-15T01:27:49;102785.22;;;-0.29;100.00
7052;BME280;3567;52.444;13.556;2023-02-15T01:30:15;102779.31;;;-0.32;100.00
7052;BME280;3567;52.444;13.556;2023-02-15T01:32:41;102780.50;;;-0.36;100.00
7052;BME280;3567;52.444;13.556;2023-02-15T01:35:08;102771.13;;;-0.40;100.00
7052;BME280;3567;52.444;13.556;2023-02-15T01:37:34;102774.91;;;-0.44;100.00
7052;BME280;3567;52.444;13.556;2023-02-15T01:40:01;102777.03;;;-0.49;100.00
7052;BME280;3567;52.444;13.556;2023-02-15T01:42:28;102766.91;;;-0.56;100.00
7052;BME280;3567;52.444;13.556;2023-02-15T01:45:04;102761.13;;;-0.61;100.00
7052;BME280;3567;52.444;13.556;2023-02-15T01:47:44;102761.34;;;-0.64;100.00
7052;BME280;3567;52.444;13.556;2023-02-15T01:50:15;102761.75;;;-0.70;100.00
7052;BME280;3567;52.444;13.556;2023-02-15T01:52:58;102748.81;;;-0.73;100.00
7052;BME280;3567;52.444;13.556;2023-02-15T01:55:33;102743.75;;;-0.76;100.00
7052;BME280;3567;52.444;13.556;2023-02-15T01:58:01;102745.66;;;-0.78;100.00
7052;BME280;3567;52.444;13.556;2023-02-15T02:00:27;102740.59;;;-0.81;100.00
7052;BME280;3567;52.444;13.556;2023-02-15T02:02:55;102743.53;;;-0.86;100.00
7052;BME280;3567;52.444;13.556;2023-02-15T02:05:22;102739.34;;;-0.88;100.00
7052;BME280;3567;52.444;13.556;2023-02-15T02:07:48;102740.50;;;-0.92;100.00
7052;BME280;3567;52.444;13.556;2023-02-15T02:10:19;102742.50;;;-0.96;100.00
7052;BME280;3567;52.444;13.556;2023-02-15T02:12:46;102735.84;;;-1.01;100.00
7052;BME280;3567;52.444;13.556;2023-02-15T02:15:13;102731.75;;;-1.06;100.00
7052;BME280;3567;52.444;13.556;2023-02-15T02:20:43;102721.44;;;-1.09;100.00
7052;BME280;3567;52.444;13.556;2023-02-15T02:24:00;102721.44;;;-1.09;100.00
7052;BME280;3567;52.444;13.556;2023-02-15T02:35:19;102717.00;;;-1.21;100.00
7052;BME280;3567;52.444;13.556;2023-02-15T02:37:24;102705.72;;;-1.23;100.00
7052;BME280;3567;52.444;13.556;2023-02-15T02:40:15;102706.69;;;-1.24;100.00
7052;BME280;3567;52.444;13.556;2023-02-15T02:42:49;102707.63;;;-1.25;100.00
7052;BME280;3567;52.444;13.556;2023-02-15T02:45:25;102705.19;;;-1.28;100.00
7052;BME280;3567;52.444;13.556;2023-02-15T02:48:12;102704.47;;;-1.30;100.00
7052;BME280;3567;52.444;13.556;2023-02-15T02:50:40;102697.53;;;-1.31;100.00
7052;BME280;3567;52.444;13.556;2023-02-15T02:53:06;102696.69;;;-1.32;100.00
7052;BME280;3567;52.444;13.556;2023-02-15T02:58:14;102690.50;;;-1.30;100.00
7052;BME280;3567;52.444;13.556;2023-02-15T03:00:55;102682.72;;;-1.32;100.00
7052;BME280;3567;52.444;13.556;2023-02-15T03:05:54;102682.72;;;-1.32;100.00
7052;BME280;3567;52.444;13.556;2023-02-15T03:08:26;102685.53;;;-1.35;100.00
7052;BME280;3567;52.444;13.556;2023-02-15T03:10:57;102681.34;;;-1.38;100.00
7052;BME280;3567;52.444;13.556;2023-02-15T03:13:23;102680.50;;;-1.38;100.00
7052;BME280;3567;52.444;13.556;2023-02-15T03:15:50;102682.38;;;-1.40;100.00
7052;BME280;3567;52.444;13.556;2023-02-15T03:18:38;102676.50;;;-1.44;100.00
7052;BME280;3567;52.444;13.556;2023-02-15T03:21:07;102676.56;;;-1.45;100.00
7052;BME280;3567;52.444;13.556;2023-02-15T03:23:34;102671.31;;;-1.45;100.00
7052;BME280;3567;52.444;13.556;2023-02-15T03:26:05;102667.97;;;-1.47;100.00
7052;BME280;3567;52.444;13.556;2023-02-15T03:28:43;102671.53;;;-1.48;100.00
7052;BME280;3567;52.444;13.556;2023-02-15T03:31:11;102673.53;;;-1.52;100.00
7052;BME280;3567;52.444;13.556;2023-02-15T03:33:44;102674.66;;;-1.56;100.00
7052;BME280;3567;52.444;13.556;2023-02-15T03:36:26;102672.16;;;-1.58;100.00
7052;BME280;3567;52.444;13.556;2023-02-15T03:41:26;102675.81;;;-1.60;100.00
7052;BME280;3567;52.444;13.556;2023-02-15T03:44:06;102673.28;;;-1.62;100.00
7052;BME280;3567;52.444;13.556;2023-02-15T03:46:45;102667.31;;;-1.64;100.00
7052;BME280;3567;52.444;13.556;2023-02-15T03:49:24;102655.94;;;-1.64;100.00
7052;BME280;3567;52.444;13.556;2023-02-15T03:51:55;102658.66;;;-1.66;100.00
7052;BME280;3567;52.444;13.556;2023-02-15T03:54:28;102660.56;;;-1.68;100.00
7052;BME280;3567;52.444;13.556;2023-02-15T03:57:14;102660.75;;;-1.71;100.00
7052;BME280;3567;52.444;13.556;2023-02-15T03:59:58;102652.97;;;-1.72;100.00
7052;BME280;3567;52.444;13.556;2023-02-15T04:03:00;102649.63;;;-1.74;100.00
7052;BME280;3567;52.444;13.556;2023-02-15T04:05:29;102650.66;;;-1.77;100.00
7052;BME280;3567;52.444;13.556;2023-02-15T04:07:54;102645.50;;;-1.78;100.00
7052;BME280;3567;52.444;13.556;2023-02-15T04:10:20;102646.44;;;-1.79;100.00
7052;BME280;3567;52.444;13.556;2023-02-15T04:13:04;102648.31;;;-1.81;100.00
7052;BME280;3567;52.444;13.556;2023-02-15T04:15:29;102649.25;;;-1.82;100.00
7052;BME280;3567;52.444;13.556;2023-02-15T04:18:14;102646.63;;;-1.82;100.00
7052;BME280;3567;52.444;13.556;2023-02-15T04:20:43;102637.09;;;-1.83;100.00
7052;BME280;3567;52.444;13.556;2023-02-15T04:23:27;102630.88;;;-1.82;100.00
7052;BME280;3567;52.444;13.556;2023-02-15T04:26:11;102640.53;;;-1.83;100.00
7052;BME280;3567;52.444;13.556;2023-02-15T04:28:36;102631.00;;;-1.84;100.00
7052;BME280;3567;52.444;13.556;2023-02-15T04:31:02;102629.09;;;-1.82;100.00
7052;BME280;3567;52.444;13.556;2023-02-15T04:33:27;102628.25;;;-1.82;100.00
7052;BME280;3567;52.444;13.556;2023-02-15T04:35:52;102629.19;;;-1.83;100.00
7052;BME280;3567;52.444;13.556;2023-02-15T04:38:18;102623.09;;;-1.84;100.00
7052;BME280;3567;52.444;13.556;2023-02-15T04:40:43;102616.19;;;-1.85;100.00
7052;BME280;3567;52.444;13.556;2023-02-15T04:43:08;102616.06;;;-1.83;100.00
7052;BME280;3567;52.444;13.556;2023-02-15T04:45:34;102619.75;;;-1.86;100.00
7052;BME280;3567;52.444;13.556;2023-02-15T04:47:59;102620.66;;;-1.87;100.00
7052;BME280;3567;52.444;13.556;2023-02-15T04:50:24;102618.25;;;-1.90;100.00
7052;BME280;3567;52.444;13.556;2023-02-15T04:52:50;102616.78;;;-1.94;100.00
7052;BME280;3567;52.444;13.556;2023-02-15T04:55:15;102616.97;;;-1.97;100.00
7052;BME280;3567;52.444;13.556;2023-02-15T04:57:41;102610.25;;;-2.01;100.00
7052;BME280;3567;52.444;13.556;2023-02-15T05:00:06;102608.47;;;-2.01;100.00
7052;BME280;3567;52.444;13.556;2023-02-15T05:02:33;102608.47;;;-2.01;100.00
7052;BME280;3567;52.444;13.556;2023-02-15T05:04:59;102601.44;;;-2.00;100.00
7052;BME280;3567;52.444;13.556;2023-02-15T05:07:24;102589.25;;;-2.01;100.00
7052;BME280;3567;52.444;13.556;2023-02-15T05:09:49;102590.91;;;-2.00;100.00
7052;BME280;3567;52.444;13.556;2023-02-15T05:12:15;102585.66;;;-2.00;100.00
7052;BME280;3567;52.444;13.556;2023-02-15T05:14:40;102588.28;;;-2.00;100.00
7052;BME280;3567;52.444;13.556;2023-02-15T05:17:05;102585.66;;;-2.00;100.00
7052;BME280;3567;52.444;13.556;2023-02-15T05:19:31;102576.84;;;-1.99;100.00
7052;BME280;3567;52.444;13.556;2023-02-15T05:21:57;102583.59;;;-1.95;100.00
7052;BME280;3567;52.444;13.556;2023-02-15T05:24:22;102582.44;;;-1.91;100.00
7052;BME280;3567;52.444;13.556;2023-02-15T05:27:08;102577.72;;;-1.86;100.00
7052;BME280;3567;52.444;13.556;2023-02-15T05:29:53;102579.31;;;-1.71;100.00
7052;BME280;3567;52.444;13.556;2023-02-15T05:32:18;102571.44;;;-1.58;100.00
7052;BME280;3567;52.444;13.556;2023-02-15T05:34:44;102574.00;;;-1.44;100.00
7052;BME280;3567;52.444;13.556;2023-02-15T05:37:09;102575.88;;;-1.33;100.00
7052;BME280;3567;52.444;13.556;2023-02-15T05:39:34;102570.91;;;-1.25;100.00
7052;BME280;3567;52.444;13.556;2023-02-15T05:42:00;102573.22;;;-1.20;100.00
7052;BME280;3567;52.444;13.556;2023-02-15T05:44:25;102579.97;;;-1.16;100.00
7052;BME280;3567;52.444;13.556;2023-02-15T05:46:51;102582.34;;;-1.13;100.00
7052;BME280;3567;52.444;13.556;2023-02-15T05:49:16;102570.88;;;-1.12;100.00
7052;BME280;3567;52.444;13.556;2023-02-15T05:51:42;102572.47;;;-1.10;100.00
7052;BME280;3567;52.444;13.556;2023-02-15T05:54:07;102568.69;;;-1.06;100.00
7052;BME280;3567;52.444;13.556;2023-02-15T05:56:32;102560.81;;;-1.06;100.00
7052;BME280;3567;52.444;13.556;2023-02-15T05:58:58;102559.00;;;-1.05;100.00
7052;BME280;3567;52.444;13.556;2023-02-15T06:01:23;102564.88;;;-1.01;100.00
7052;BME280;3567;52.444;13.556;2023-02-15T06:03:49;102569.09;;;-0.99;100.00
7052;BME280;3567;52.444;13.556;2023-02-15T06:06:15;102568.25;;;-0.99;100.00
7052;BME280;3567;52.444;13.556;2023-02-15T06:08:40;102563.19;;;-1.02;100.00
7052;BME280;3567;52.444;13.556;2023-02-15T06:11:06;102565.94;;;-1.04;100.00
7052;BME280;3567;52.444;13.556;2023-02-15T06:13:32;102565.94;;;-1.04;100.00
7052;BME280;3567;52.444;13.556;2023-02-15T06:15:58;102563.19;;;-1.02;100.00
7052;BME280;3567;52.444;13.556;2023-02-15T06:18:23;102564.88;;;-1.01;100.00
7052;BME280;3567;52.444;13.556;2023-02-15T06:20:49;102565.50;;;-0.98;100.00
7052;BME280;3567;52.444;13.556;2023-02-15T06:23:14;102564.47;;;-0.95;100.00
7052;BME280;3567;52.444;13.556;2023-02-15T06:25:40;102560.88;;;-0.94;100.00
7052;BME280;3567;52.444;13.556;2023-02-15T06:28:06;102558.97;;;-0.92;100.00
7052;BME280;3567;52.444;13.556;2023-02-15T06:30:31;102566.66;;;-0.89;100.00
7052;BME280;3567;52.444;13.556;2023-02-15T06:32:57;102556.13;;;-0.89;100.00
7052;BME280;3567;52.444;13.556;2023-02-15T06:35:22;102553.72;;;-0.92;100.00
7052;BME280;3567;52.444;13.556;2023-02-15T06:37:48;102547.59;;;-0.93;100.00
7052;BME280;3567;52.444;13.556;2023-02-15T06:40:13;102550.34;;;-0.94;100.00
7052;BME280;3567;52.444;13.556;2023-02-15T06:42:39;102550.34;;;-0.94;100.00
7052;BME280;3567;52.444;13.556;2023-02-15T06:45:05;102550.25;;;-0.93;100.00
7052;BME280;3567;52.444;13.556;2023-02-15T06:47:30;102553.72;;;-0.92;100.00
7052;BME280;3567;52.444;13.556;2023-02-15T06:49:56;102555.38;;;-0.91;100.00
7052;BME280;3567;52.444;13.556;2023-02-15T06:52:22;102553.50;;;-0.89;100.00
7052;BME280;3567;52.444;13.556;2023-02-15T06:54:48;102551.59;;;-0.87;100.00
7052;BME280;3567;52.444;13.556;2023-02-15T06:57:13;102553.28;;;-0.86;100.00
7052;BME280;3567;52.444;13.556;2023-02-15T06:59:38;102550.44;;;-0.83;100.00
7052;BME280;3567;52.444;13.556;2023-02-15T07:02:04;102553.06;;;-0.83;100.00
7052;BME280;3567;52.444;13.556;2023-02-15T07:04:29;102547.81;;;-0.83;100.00
7052;BME280;3567;52.444;13.556;2023-02-15T07:06:55;102544.53;;;-0.87;100.00
7052;BME280;3567;52.444;13.556;2023-02-15T07:09:21;102541.31;;;-0.90;100.00
7052;BME280;3567;52.444;13.556;2023-02-15T07:11:47;102539.41;;;-0.88;100.00
7052;BME280;3567;52.444;13.556;2023-02-15T07:14:31;102540.94;;;-0.86;100.00
7052;BME280;3567;52.444;13.556;2023-02-15T07:16:57;102542.53;;;-0.83;100.00
7052;BME280;3567;52.444;13.556;2023-02-15T07:19:22;102538.00;;;-0.81;100.00
7052;BME280;3567;52.444;13.556;2023-02-15T07:21:47;102536.84;;;-0.77;100.00
7052;BME280;3567;52.444;13.556;2023-02-15T07:24:13;102534.91;;;-0.75;100.00
7052;BME280;3567;52.444;13.556;2023-02-15T07:26:39;102533.25;;;-0.76;100.00
7052;BME280;3567;52.444;13.556;2023-02-15T07:29:04;102533.25;;;-0.76;100.00
7052;BME280;3567;52.444;13.556;2023-02-15T07:31:29;102533.88;;;-0.72;100.00
7052;BME280;3567;52.444;13.556;2023-02-15T07:33:55;102522.28;;;-0.70;100.00
7052;BME280;3567;52.444;13.556;2023-02-15T07:36:20;102522.19;;;-0.68;100.00
7052;BME280;3567;52.444;13.556;2023-02-15T07:38:45;102512.56;;;-0.69;100.00
7052;BME280;3567;52.444;13.556;2023-02-15T07:41:13;102517.84;;;-0.69;100.00
7052;BME280;3567;52.444;13.556;2023-02-15T07:43:40;102507.94;;;-0.66;100.00
7052;BME280;3567;52.444;13.556;2023-02-15T07:46:09;102508.69;;;-0.64;100.00
7052;BME280;3567;52.444;13.556;2023-02-15T07:48:35;102501.72;;;-0.65;100.00
7052;BME280;3567;52.444;13.556;2023-02-15T07:51:02;102499.00;;;-0.63;100.00
7052;BME280;3567;52.444;13.556;2023-02-15T07:53:28;102506.66;;;-0.60;100.00
7052;BME280;3567;52.444;13.556;2023-02-15T07:55:54;102498.63;;;-0.59;100.00
7052;BME280;3567;52.444;13.556;2023-02-15T07:58:20;102504.84;;;-0.60;100.00
7052;BME280;3567;52.444;13.556;2023-02-15T08:00:45;102501.19;;;-0.57;100.00
7052;BME280;3567;52.444;13.556;2023-02-15T08:03:24;102494.84;;;-0.55;100.00
7052;BME280;3567;52.444;13.556;2023-02-15T08:05:56;102492.94;;;-0.52;100.00
7052;BME280;3567;52.444;13.556;2023-02-15T08:08:22;102496.28;;;-0.50;100.00
7052;BME280;3567;52.444;13.556;2023-02-15T08:11:14;102496.28;;;-0.50;100.00
7052;BME280;3567;52.444;13.556;2023-02-15T08:14:11;102494.28;;;-0.47;100.00
7052;BME280;3567;52.444;13.556;2023-02-15T08:16:42;102500.88;;;-0.41;100.00
7052;BME280;3567;52.444;13.556;2023-02-15T08:21:41;102497.94;;;-0.37;100.00
7052;BME280;3567;52.444;13.556;2023-02-15T08:24:08;102498.41;;;-0.32;100.00
7052;BME280;3567;52.444;13.556;2023-02-15T08:26:35;102497.13;;;-0.26;100.00
7052;BME280;3567;52.444;13.556;2023-02-15T08:29:01;102498.06;;;-0.27;100.00
7052;BME280;3567;52.444;13.556;2023-02-15T08:31:28;102489.22;;;-0.26;100.00
7052;BME280;3567;52.444;13.556;2023-02-15T08:33:55;102499.50;;;-0.23;100.00
7052;BME280;3567;52.444;13.556;2023-02-15T08:36:24;102498.22;;;-0.17;100.00
7052;BME280;3567;52.444;13.556;2023-02-15T08:38:49;102493.31;;;-0.11;100.00
7052;BME280;3567;52.444;13.556;2023-02-15T08:43:41;102478.16;;;0.04;100.00
7052;BME280;3567;52.444;13.556;2023-02-15T08:46:11;102476.84;;;0.10;100.00
7052;BME280;3567;52.444;13.556;2023-02-15T08:48:37;102466.91;;;0.13;100.00
7052;BME280;3567;52.444;13.556;2023-02-15T08:51:16;102471.84;;;0.18;100.00
7052;BME280;3567;52.444;13.556;2023-02-15T08:53:45;102466.31;;;0.21;100.00
7052;BME280;3567;52.444;13.556;2023-02-15T08:56:11;102472.53;;;0.31;100.00
7052;BME280;3567;52.444;13.556;2023-02-15T08:58:37;102465.13;;;0.36;100.00
7052;BME280;3567;52.444;13.556;2023-02-15T09:01:14;102458.31;;;0.45;100.00
7052;BME280;3567;52.444;13.556;2023-02-15T09:03:43;102460.09;;;0.56;100.00
7052;BME280;3567;52.444;13.556;2023-02-15T09:06:09;102453.28;;;0.64;100.00
7052;BME280;3567;52.444;13.556;2023-02-15T09:08:36;102447.50;;;0.70;100.00
7052;BME280;3567;52.444;13.556;2023-02-15T09:11:07;102441.25;;;0.71;100.00
7052;BME280;3567;52.444;13.556;2023-02-15T09:13:33;102456.00;;;0.74;100.00
7052;BME280;3567;52.444;13.556;2023-02-15T09:16:05;102448.69;;;0.77;100.00
7052;BME280;3567;52.444;13.556;2023-02-15T09:18:33;102448.31;;;0.82;100.00
7052;BME280;3567;52.444;13.556;2023-02-15T09:21:14;102456.72;;;0.87;100.00
7052;BME280;3567;52.444;13.556;2023-02-15T09:23:41;102451.28;;;0.89;100.00
7052;BME280;3567;52.444;13.556;2023-02-15T09:26:15;102450.56;;;0.98;100.00
7052;BME280;3567;52.444;13.556;2023-02-15T09:28:40;102451.88;;;1.03;100.00
7052;BME280;3567;52.444;13.556;2023-02-15T09:31:28;102457.34;;;1.12;100.00
7052;BME280;3567;52.444;13.556;2023-02-15T09:33:53;102455.91;;;1.19;100.00
7052;BME280;3567;52.444;13.556;2023-02-15T09:38:55;102455.59;;;1.33;100.00
7052;BME280;3567;52.444;13.556;2023-02-15T09:47:01;102449.72;;;1.62;100.00
7052;BME280;3567;52.444;13.556;2023-02-15T10:20:20;102429.34;;;2.55;100.00
7052;BME280;3567;52.444;13.556;2023-02-15T10:23:17;102439.13;;;2.65;100.00
7052;BME280;3567;52.444;13.556;2023-02-15T10:26:19;102426.06;;;2.73;100.00
7052;BME280;3567;52.444;13.556;2023-02-15T10:28:51;102424.72;;;2.88;100.00
7052;BME280;3567;52.444;13.556;2023-02-15T10:31:27;102418.75;;;3.05;100.00
7052;BME280;3567;52.444;13.556;2023-02-15T10:39:55;102410.28;;;3.87;100.00
7052;BME280;3567;52.444;13.556;2023-02-15T10:45:19;102412.44;;;5.65;100.00
7052;BME280;3567;52.444;13.556;2023-02-15T10:50:54;102401.91;;;6.42;99.25
7052;BME280;3567;52.444;13.556;2023-02-15T10:56:23;102397.69;;;6.73;98.36
7052;BME280;3567;52.444;13.556;2023-02-15T11:01:44;102391.78;;;7.37;95.69
7052;BME280;3567;52.444;13.556;2023-02-15T11:06:59;102380.69;;;7.97;91.32
7052;BME280;3567;52.444;13.556;2023-02-15T11:09:36;102380.31;;;8.16;89.40
7052;BME280;3567;52.444;13.556;2023-02-15T11:12:09;102383.72;;;7.85;89.86
7052;BME280;3567;52.444;13.556;2023-02-15T11:14:45;102382.47;;;8.12;91.83
7052;BME280;3567;52.444;13.556;2023-02-15T11:17:17;102379.31;;;8.87;89.16
7052;BME280;3567;52.444;13.556;2023-02-15T11:22:26;102381.91;;;9.41;85.30
7052;BME280;3567;52.444;13.556;2023-02-15T11:24:52;102376.91;;;9.76;84.30
7052;BME280;3567;52.444;13.556;2023-02-15T11:27:25;102372.75;;;9.88;81.08
7052;BME280;3567;52.444;13.556;2023-02-15T11:35:26;102363.06;;;10.32;79.81
7052;BME280;3567;52.444;13.556;2023-02-15T11:38:12;102345.44;;;10.08;77.28
7052;BME280;3567;52.444;13.556;2023-02-15T11:40:53;102338.59;;;10.05;77.51
7052;BME280;3567;52.444;13.556;2023-02-15T11:45:57;102333.63;;;10.02;77.99
7052;BME280;3567;52.444;13.556;2023-02-15T11:48:22;102320.03;;;10.18;77.13
7052;BME280;3567;52.444;13.556;2023-02-15T11:50:48;102317.16;;;10.20;76.02
7052;BME280;3567;52.444;13.556;2023-02-15T11:53:16;102311.16;;;10.33;75.50
7052;BME280;3567;52.444;13.556;2023-02-15T11:55:43;102320.28;;;10.38;75.46
7052;BME280;3567;52.444;13.556;2023-02-15T11:58:48;102315.03;;;10.45;74.45
7052;BME280;3567;52.444;13.556;2023-02-15T12:01:44;102312.28;;;10.60;75.26
7052;BME280;3567;52.444;13.556;2023-02-15T12:10:10;102310.84;;;10.79;74.00
7052;BME280;3567;52.444;13.556;2023-02-15T12:12:39;102315.69;;;10.68;75.12
7052;BME280;3567;52.444;13.556;2023-02-15T12:15:10;102318.41;;;10.96;73.81
7052;BME280;3567;52.444;13.556;2023-02-15T12:17:40;102314.56;;;11.27;72.76
7052;BME280;3567;52.444;13.556;2023-02-15T12:20:19;102311.22;;;11.46;72.63
7052;BME280;3567;52.444;13.556;2023-02-15T12:23:03;102302.44;;;11.66;69.92
7052;BME280;3567;52.444;13.556;2023-02-15T12:25:43;102301.44;;;11.67;69.32
7052;BME280;3567;52.444;13.556;2023-02-15T12:28:33;102294.00;;;11.69;70.72
7052;BME280;3567;52.444;13.556;2023-02-15T12:30:59;102293.56;;;11.93;70.12
7052;BME280;3567;52.444;13.556;2023-02-15T12:33:30;102290.31;;;12.04;70.26
7052;BME280;3567;52.444;13.556;2023-02-15T12:36:00;102288.47;;;12.18;69.18
7052;BME280;3567;52.444;13.556;2023-02-15T12:38:28;102285.19;;;12.23;67.92
7052;BME280;3567;52.444;13.556;2023-02-15T12:41:23;102279.44;;;12.39;67.26
7052;BME280;3567;52.444;13.556;2023-02-15T12:44:05;102277.22;;;12.56;66.50
7052;BME280;3567;52.444;13.556;2023-02-15T12:46:31;102268.53;;;12.47;66.94
7052;BME280;3567;52.444;13.556;2023-02-15T12:54:29;102262.13;;;12.62;66.38
7052;BME280;3567;52.444;13.556;2023-02-15T12:56:55;102250.34;;;12.63;66.02
7052;BME280;3567;52.444;13.556;2023-02-15T12:59:23;102242.06;;;12.64;66.25
7052;BME280;3567;52.444;13.556;2023-02-15T13:01:48;102241.69;;;12.74;65.84
7052;BME280;3567;52.444;13.556;2023-02-15T13:04:26;102233.00;;;12.78;65.61
7052;BME280;3567;52.444;13.556;2023-02-15T13:06:56;102228.84;;;12.69;64.82
7052;BME280;3567;52.444;13.556;2023-02-15T13:12:18;102220.97;;;12.48;64.37
7052;BME280;3567;52.444;13.556;2023-02-15T13:14:46;102215.53;;;12.15;65.33
7052;BME280;3567;52.444;13.556;2023-02-15T13:17:13;102216.47;;;11.87;66.74
7052;BME280;3567;52.444;13.556;2023-02-15T13:19:49;102215.09;;;11.63;66.89
7052;BME280;3567;52.444;13.556;2023-02-15T13:22:22;102210.22;;;11.39;68.32
7052;BME280;3567;52.444;13.556;2023-02-15T13:24:59;102197.69;;;11.18;69.39
7052;BME280;3567;52.444;13.556;2023-02-15T13:27:36;102199.56;;;10.89;69.54
7052;BME280;3567;52.444;13.556;2023-02-15T13:30:12;102199.56;;;10.89;70.70
7052;BME280;3567;52.444;13.556;2023-02-15T13:32:40;102196.13;;;10.95;70.42
7052;BME280;3567;52.444;13.556;2023-02-15T13:35:14;102187.22;;;10.88;70.76
7052;BME280;3567;52.444;13.556;2023-02-15T13:38:06;102180.47;;;10.71;70.84
7052;BME280;3567;52.444;13.556;2023-02-15T13:40:55;102187.44;;;10.65;71.32
7052;BME280;3567;52.444;13.556;2023-02-15T13:43:28;102177.56;;;10.66;71.67
7052;BME280;3567;52.444;13.556;2023-02-15T13:46:18;102171.28;;;10.59;71.39
7052;BME280;3567;52.444;13.556;2023-02-15T13:49:23;102173.41;;;10.63;71.99
7052;BME280;3567;52.444;13.556;2023-02-15T14:00:22;102160.88;;;11.33;70.72
7052;BME280;3567;52.444;13.556;2023-02-15T14:03:12;102161.97;;;11.45;70.45
7052;BME280;3567;52.444;13.556;2023-02-15T14:05:53;102161.78;;;11.53;69.47
7052;BME280;3567;52.444;13.556;2023-02-15T14:08:54;102164.50;;;11.60;68.24
7052;BME280;3567;52.444;13.556;2023-02-15T14:19:30;102166.75;;;12.11;67.13
7052;BME280;3567;52.444;13.556;2023-02-15T14:22:07;102161.81;;;12.21;67.43
7052;BME280;3567;52.444;13.556;2023-02-15T14:27:10;102170.94;;;12.53;66.84
7052;BME280;3567;52.444;13.556;2023-02-15T14:32:20;102163.91;;;12.52;65.56
7052;BME280;3567;52.444;13.556;2023-02-15T14:37:21;102167.81;;;12.23;66.22
7052;BME280;3567;52.444;13.556;2023-02-15T14:40:17;102161.38;;;12.04;66.29
7052;BME280;3567;52.444;13.556;2023-02-15T14:43:11;102156.38;;;11.88;67.53
7052;BME280;3567;52.444;13.556;2023-02-15T14:45:52;102153.00;;;11.73;67.91
7052;BME280;3567;52.444;13.556;2023-02-15T14:48:30;102152.28;;;11.51;68.49
7052;BME280;3567;52.444;13.556;2023-02-15T14:50:56;102147.03;;;11.30;68.86
7052;BME280;3567;52.444;13.556;2023-02-15T14:53:40;102144.25;;;11.10;69.71
7052;BME280;3567;52.444;13.556;2023-02-15T14:58:56;102150.22;;;10.77;70.86
7052;BME280;3567;52.444;13.556;2023-02-15T15:03:55;102145.94;;;10.55;71.87
7052;BME280;3567;52.444;13.556;2023-02-15T15:06:28;102142.56;;;10.46;72.47
7052;BME280;3567;52.444;13.556;2023-02-15T15:09:00;102143.06;;;10.35;73.00
7052;BME280;3567;52.444;13.556;2023-02-15T15:13:59;102136.72;;;10.21;73.99
7052;BME280;3567;52.444;13.556;2023-02-15T15:16:28;102142.47;;;10.18;73.95
7052;BME280;3567;52.444;13.556;2023-02-15T15:18:55;102138.72;;;10.12;74.72
7052;BME280;3567;52.444;13.556;2023-02-15T15:44:11;102133.16;;;9.41;78.55
7052;BME280;3567;52.444;13.556;2023-02-15T15:49:31;102138.63;;;9.04;79.60
7052;BME280;3567;52.444;13.556;2023-02-15T15:52:00;102144.53;;;8.84;80.46
7052;BME280;3567;52.444;13.556;2023-02-15T15:54:27;102150.38;;;8.65;81.42
7052;BME280;3567;52.444;13.556;2023-02-15T15:56:57;102141.03;;;8.46;82.31
7052;BME280;3567;52.444;13.556;2023-02-15T15:59:31;102139.47;;;8.29;82.65